Valdosta, GA

4:21 PM EST on March 03, 2015 (GMT -0500)
Audio Video and Security Inc. | Change Station
CLOSE
Current Station
Personal Weather Station
Location: Valdosta, GA
Elevation: 220 ft
Nearby Weather Stations

Elev 220 ft 30.81 °N, 83.32 °W | Updated 50 seconds ago

Scattered Clouds
Scattered Clouds
82.9 °F
Feels Like 83 °F
N
6.9
Wind Variable Wind from NNE
Gusts 11.4 mph

Today
High -- | Low -- °F
--% Chance of Precip.
Yesterday
High -- | Low -- °F
Precip. -- in
6:57 AM 6:33 PM
Waxing Gibbous, 97% visible
Pressure 30.12 in
Visibility 10.0 miles
Clouds Scattered Clouds 7000 ft
Heat Index 83 °F
Dew Point 61 °F
Humidity 47%
Rainfall 0.00 in
Snow Depth Not available.
UV 3 out of 12
Pollen 6.90 out of 12
Air Quality Not available.
Flu Activity Not available.
METAR KVLD 032053Z VRB05KT 10SM SCT070 28/17 A3010 RMK AO2 SLP198 T02780167 56026

More Conditions Fewer Conditions

Pressure 30.12 in
Visibility 10.0 miles
Clouds Scattered Clouds 7000 ft
Heat Index 83 °F
Dew Point 61 °F
Humidity 47%
Rainfall 0.00 in
Snow Depth Not available.
UV 3 out of 12
Pollen 6.90 out of 12
Air Quality Not available.
Flu Activity Not available.
METAR KVLD 032053Z VRB05KT 10SM SCT070 28/17 A3010 RMK AO2 SLP198 T02780167 56026

More Conditions Fewer Conditions

10-Day Weather Forecast

Almanac

Astronomy

Mar. 03, 2015 Rise Set
Actual Time
Civil Twilight
Nautical Twilight
Astronomical Twilight
Moon
Length of Visible Light
Length of Day
Tomorrow will be .
, % of the Moon is Illuminated

Today's Extremes

State Highs State Lows

Community

WunderPhotos

Upload Photos

1,802,261 photos uploaded!

WunderBlogs® & News

Nearby

Air Quality

  Air Quality AQ Index Pollutant
Not available.

Snow Depth

Station Depth Elevation

Earthquake Activity

City Distance Mag. Time & Date
Minimum magnitude displayed is 2.5.

Coastal Water Temperatures

Place Temperature

Nearby Weather Stations